createdAt,value
2023-01-17T13:20:18.267Z,7
2023-01-17T13:25:17.223Z,8
2023-01-17T13:30:17.353Z,8
2023-01-17T13:35:17.397Z,8
2023-01-17T13:40:17.443Z,7
2023-01-17T13:45:17.363Z,8
2023-01-17T13:50:17.769Z,8
2023-01-17T13:55:17.410Z,10
2023-01-17T14:00:17.538Z,11
2023-01-17T14:05:17.480Z,10
2023-01-17T14:10:18.735Z,10
2023-01-17T14:15:17.444Z,12
2023-01-17T14:20:17.948Z,11
2023-01-17T14:25:17.495Z,11
2023-01-17T14:30:17.869Z,11
2023-01-17T14:35:17.678Z,10
2023-01-17T14:40:17.579Z,10
2023-01-17T14:45:17.492Z,10
2023-01-17T14:50:17.726Z,11
2023-01-17T14:55:17.688Z,10
2023-01-17T15:00:17.799Z,11
2023-01-17T15:05:17.659Z,10
2023-01-17T15:10:17.768Z,8
2023-01-17T15:15:17.616Z,8
2023-01-17T15:20:17.678Z,7
2023-01-17T15:25:17.688Z,6
2023-01-17T15:30:17.977Z,7
2023-01-17T15:35:17.787Z,8
2023-01-17T15:40:18.126Z,8
2023-01-17T15:45:17.711Z,8
2023-01-17T15:50:18.407Z,7
2023-01-17T15:55:17.774Z,7
2023-01-17T16:00:17.807Z,8
2023-01-17T16:05:18.161Z,7
2023-01-17T16:10:18.624Z,6
2023-01-17T16:15:18.546Z,5
2023-01-17T16:20:18.058Z,4
2023-01-17T16:25:17.957Z,5
2023-01-17T16:30:17.942Z,6
2023-01-17T16:35:17.908Z,4
2023-01-17T16:40:18.371Z,4
2023-01-17T16:45:17.981Z,6
2023-01-17T16:50:18.467Z,5
2023-01-17T16:55:17.915Z,5
2023-01-17T17:00:18.104Z,3
2023-01-17T17:05:18.262Z,4
2023-01-17T17:10:18.020Z,5
2023-01-17T17:15:18.045Z,5
2023-01-17T17:20:18.146Z,7
2023-01-17T17:25:17.902Z,6
2023-01-17T17:30:18.075Z,5
2023-01-17T17:35:18.197Z,5
2023-01-17T17:40:18.042Z,6
2023-01-17T17:45:18.078Z,6
2023-01-17T17:50:18.635Z,7
2023-01-17T17:55:18.179Z,8
2023-01-17T18:00:18.453Z,7
2023-01-17T18:05:18.160Z,8
2023-01-17T18:10:19.132Z,5
2023-01-17T18:15:16.196Z,6
2023-01-17T18:20:16.375Z,6
2023-01-17T18:25:16.275Z,5
2023-01-17T18:30:16.328Z,8
2023-01-17T18:35:16.925Z,7
2023-01-17T18:40:16.399Z,6
2023-01-17T18:45:16.244Z,5
2023-01-17T18:50:16.759Z,4
2023-01-17T18:55:16.376Z,3
2023-01-17T19:00:16.554Z,1
2023-01-17T19:05:16.437Z,2
2023-01-17T19:10:16.632Z,3
2023-01-17T19:15:16.514Z,6
2023-01-17T19:20:16.574Z,8
2023-01-17T19:25:16.503Z,6
2023-01-17T19:30:16.608Z,6
2023-01-17T19:35:17.062Z,7
2023-01-17T19:40:16.457Z,5
2023-01-17T19:45:16.494Z,5
2023-01-17T19:50:16.521Z,4
2023-01-17T19:55:16.436Z,6
2023-01-17T20:00:16.786Z,6
2023-01-17T20:05:16.476Z,7
2023-01-17T20:10:17.602Z,7
2023-01-17T20:15:16.659Z,8
2023-01-17T20:20:16.597Z,8
2023-01-17T20:25:16.538Z,8
2023-01-17T20:30:20.508Z,7
2023-01-17T20:35:16.737Z,5
2023-01-17T20:40:16.691Z,4
2023-01-17T20:45:16.656Z,3
2023-01-17T20:50:17.229Z,3
2023-01-17T20:55:16.604Z,1
2023-01-17T21:00:16.678Z,2
2023-01-17T21:05:16.671Z,2
2023-01-17T21:10:16.760Z,3
2023-01-17T21:15:16.631Z,3
2023-01-17T21:20:17.006Z,4
2023-01-17T21:25:16.850Z,3
2023-01-17T21:30:16.731Z,3
2023-01-17T21:35:16.824Z,3
2023-01-17T21:40:16.792Z,4
2023-01-17T21:45:16.702Z,4
2023-01-17T21:50:35.594Z,3
2023-01-17T21:55:16.788Z,3
2023-01-17T22:00:16.838Z,4
2023-01-17T22:05:16.994Z,4
2023-01-17T22:10:19.769Z,5
2023-01-17T22:15:16.874Z,6
2023-01-17T22:20:17.426Z,6
2023-01-17T22:25:16.977Z,6
2023-01-17T22:30:17.154Z,5
2023-01-17T22:35:17.113Z,5
2023-01-17T22:40:16.897Z,5
2023-01-17T22:45:16.942Z,5
2023-01-17T22:50:17.047Z,6
2023-01-17T22:55:16.921Z,6
2023-01-17T23:00:17.178Z,6
2023-01-17T23:05:17.196Z,7
2023-01-17T23:10:17.296Z,8
2023-01-17T23:15:16.949Z,8
2023-01-17T23:20:17.088Z,7
2023-01-17T23:25:17.020Z,8
2023-01-17T23:30:17.252Z,8
2023-01-17T23:35:18.036Z,8
2023-01-17T23:40:17.103Z,9
2023-01-17T23:45:17.114Z,8
2023-01-17T23:50:17.154Z,8
2023-01-17T23:55:17.057Z,8
